Time,TemperatureF,DewpointF,PressureIn,WindDirection,WindDirectionDegrees,WindSpeedMPH,WindSpeedGustMPH,Humidity,HourlyPrecipIn,Conditions,Clouds,dailyrainin,SolarRadiationWatts/m^2,SoftwareType,DateUTC
2013-02-25 00:01:00,32.0,29.0,-100.00,SW,226,1.0,3.0,88,0.00,,,0.06,0.000000,,2013-02-25 05:01:00,
2013-02-25 00:32:00,32.0,29.0,-100.00,SW,226,1.0,3.0,88,0.00,,,0.06,0.000000,,2013-02-25 05:32:00,
2013-02-25 00:42:00,32.0,29.0,-100.00,SW,226,1.0,3.0,88,0.00,,,0.06,0.000000,,2013-02-25 05:42:00,
2013-02-25 00:52:00,32.0,29.0,-100.00,SW,226,1.0,3.0,88,0.00,,,0.06,0.000000,,2013-02-25 05:52:00,
2013-02-25 01:01:00,32.0,29.0,-100.00,WNW,298,0.0,4.0,87,0.00,,,0.05,0.000000,,2013-02-25 06:01:00,
2013-02-25 01:32:00,32.0,29.0,-100.00,WNW,298,0.0,4.0,87,0.00,,,0.05,0.000000,,2013-02-25 06:32:00,
2013-02-25 01:42:00,32.0,29.0,-100.00,WNW,298,0.0,4.0,87,0.00,,,0.05,0.000000,,2013-02-25 06:42:00,
2013-02-25 01:52:00,32.0,29.0,-100.00,WNW,298,0.0,4.0,87,0.00,,,0.05,0.000000,,2013-02-25 06:52:00,
2013-02-25 02:01:00,32.0,29.0,-100.00,WNW,282,0.0,3.0,88,0.00,,,0.05,0.000000,,2013-02-25 07:01:00,
2013-02-25 02:32:00,32.0,29.0,-100.00,WNW,282,0.0,3.0,88,0.00,,,0.05,0.000000,,2013-02-25 07:32:00,
2013-02-25 02:42:00,32.0,29.0,-100.00,WNW,282,0.0,3.0,88,0.00,,,0.05,0.000000,,2013-02-25 07:42:00,
2013-02-25 02:52:00,32.0,29.0,-100.00,WNW,282,0.0,3.0,88,0.00,,,0.05,0.000000,,2013-02-25 07:52:00,
2013-02-25 03:01:00,32.0,29.0,-100.00,SW,216,1.0,3.0,88,0.00,,,0.04,0.000000,,2013-02-25 08:01:00,
2013-02-25 03:32:00,32.0,29.0,-100.00,SW,216,1.0,3.0,88,0.00,,,0.04,0.000000,,2013-02-25 08:32:00,
2013-02-25 03:42:00,32.0,29.0,-100.00,SW,216,1.0,3.0,88,0.00,,,0.04,0.000000,,2013-02-25 08:42:00,
2013-02-25 03:52:00,32.0,29.0,-100.00,SW,216,1.0,3.0,88,0.00,,,0.04,0.000000,,2013-02-25 08:52:00,
2013-02-25 04:01:00,31.0,28.0,-100.00,SSE,168,0.0,2.0,89,0.00,,,0.03,0.000000,,2013-02-25 09:01:00,
2013-02-25 04:32:00,31.0,28.0,-100.00,SSE,168,0.0,2.0,89,0.00,,,0.03,0.000000,,2013-02-25 09:32:00,
2013-02-25 04:42:00,31.0,28.0,-100.00,SSE,168,0.0,2.0,89,0.00,,,0.03,0.000000,,2013-02-25 09:42:00,
2013-02-25 04:52:00,31.0,28.0,-100.00,SSE,168,0.0,2.0,89,0.00,,,0.03,0.000000,,2013-02-25 09:52:00,
2013-02-25 05:01:00,31.0,29.0,-100.00,SSW,200,0.0,1.0,92,0.00,,,0.03,0.000000,,2013-02-25 10:01:00,
2013-02-25 05:21:00,31.0,29.0,-100.00,SSW,200,0.0,1.0,92,0.00,,,0.03,0.000000,,2013-02-25 10:21:00,
2013-02-25 05:32:00,31.0,29.0,-100.00,SSW,200,0.0,1.0,92,0.00,,,0.03,0.000000,,2013-02-25 10:32:00,
2013-02-25 05:42:00,31.0,29.0,-100.00,SSW,200,0.0,1.0,92,0.00,,,0.03,0.000000,,2013-02-25 10:42:00,
2013-02-25 05:52:00,31.0,29.0,-100.00,SSW,200,0.0,1.0,92,0.00,,,0.03,0.000000,,2013-02-25 10:52:00,
2013-02-25 06:01:00,31.0,28.0,-100.00,WSW,240,0.0,2.0,90,0.00,,,0.03,0.000000,,2013-02-25 11:01:00,
2013-02-25 06:22:00,31.0,28.0,-100.00,WSW,240,0.0,2.0,90,0.00,,,0.03,0.000000,,2013-02-25 11:22:00,
2013-02-25 06:32:00,31.0,28.0,-100.00,WSW,240,0.0,2.0,90,0.00,,,0.03,0.000000,,2013-02-25 11:32:00,
2013-02-25 06:42:00,31.0,28.0,-100.00,WSW,240,0.0,2.0,90,0.00,,,0.03,0.000000,,2013-02-25 11:42:00,
2013-02-25 06:52:00,31.0,28.0,-100.00,WSW,240,0.0,2.0,90,0.00,,,0.03,0.000000,,2013-02-25 11:52:00,
2013-02-25 07:01:00,31.0,29.0,-100.00,WSW,252,0.0,2.0,92,0.00,,,0.03,1.000000,,2013-02-25 12:01:00,
2013-02-25 07:22:00,31.0,29.0,-100.00,WSW,252,0.0,2.0,92,0.00,,,0.03,1.000000,,2013-02-25 12:22:00,
2013-02-25 07:32:00,31.0,29.0,-100.00,WSW,252,0.0,2.0,92,0.00,,,0.03,1.000000,,2013-02-25 12:32:00,
2013-02-25 07:42:00,31.0,29.0,-100.00,WSW,252,0.0,2.0,92,0.00,,,0.03,1.000000,,2013-02-25 12:42:00,
2013-02-25 07:56:00,31.0,29.0,-100.00,WSW,252,0.0,2.0,92,0.00,,,0.03,1.000000,,2013-02-25 12:56:00,
2013-02-25 08:01:00,33.0,30.0,-100.00,SW,231,0.0,2.0,87,0.00,,,0.03,20.000000,,2013-02-25 13:01:00,
2013-02-25 08:23:00,33.0,30.0,-100.00,SW,231,0.0,2.0,87,0.00,,,0.03,20.000000,,2013-02-25 13:23:00,
2013-02-25 08:32:00,33.0,30.0,-100.00,SW,231,0.0,2.0,87,0.00,,,0.03,20.000000,,2013-02-25 13:32:00,
2013-02-25 08:42:00,33.0,30.0,-100.00,SW,231,0.0,2.0,87,0.00,,,0.03,20.000000,,2013-02-25 13:42:00,
2013-02-25 08:52:00,33.0,30.0,-100.00,SW,231,0.0,2.0,87,0.00,,,0.03,20.000000,,2013-02-25 13:52:00,
2013-02-25 09:01:00,34.0,29.0,-100.00,SSW,192,0.0,4.0,83,0.00,,,0.03,63.000000,,2013-02-25 14:01:00,
2013-02-25 09:32:00,34.0,29.0,-100.00,SSW,192,0.0,4.0,83,0.00,,,0.03,63.000000,,2013-02-25 14:32:00,
2013-02-25 09:42:00,34.0,29.0,-100.00,SSW,192,0.0,4.0,83,0.00,,,0.03,63.000000,,2013-02-25 14:42:00,
2013-02-25 09:52:00,34.0,29.0,-100.00,SSW,192,0.0,4.0,83,0.00,,,0.03,63.000000,,2013-02-25 14:52:00,
2013-02-25 10:01:00,36.0,31.0,-100.00,SSW,208,1.0,5.0,81,0.00,,,0.01,94.000000,,2013-02-25 15:01:00,
2013-02-25 10:22:00,36.0,31.0,-100.00,SSW,208,1.0,5.0,81,0.00,,,0.01,94.000000,,2013-02-25 15:22:00,
2013-02-25 10:32:00,36.0,31.0,-100.00,SSW,208,1.0,5.0,81,0.00,,,0.01,94.000000,,2013-02-25 15:32:00,
2013-02-25 10:42:00,36.0,31.0,-100.00,SSW,208,1.0,5.0,81,0.00,,,0.01,94.000000,,2013-02-25 15:42:00,
2013-02-25 10:52:00,36.0,31.0,-100.00,SSW,208,1.0,5.0,81,0.00,,,0.01,94.000000,,2013-02-25 15:52:00,
2013-02-25 11:01:00,38.0,31.0,-100.00,SSW,210,1.0,4.0,77,0.00,,,0.00,161.000000,,2013-02-25 16:01:00,
2013-02-25 11:32:00,38.0,31.0,-100.00,SSW,210,1.0,4.0,77,0.00,,,0.00,161.000000,,2013-02-25 16:32:00,
2013-02-25 11:42:00,38.0,31.0,-100.00,SSW,210,1.0,4.0,77,0.00,,,0.00,161.000000,,2013-02-25 16:42:00,
2013-02-25 11:52:00,38.0,31.0,-100.00,SSW,210,1.0,4.0,77,0.00,,,0.00,161.000000,,2013-02-25 16:52:00,
2013-02-25 12:01:00,38.0,31.0,-100.00,SW,231,2.0,5.0,75,0.00,,,0.00,171.000000,,2013-02-25 17:01:00,
2013-02-25 12:32:00,38.0,31.0,-100.00,SW,231,2.0,5.0,75,0.00,,,0.00,171.000000,,2013-02-25 17:32:00,
2013-02-25 12:42:00,38.0,31.0,-100.00,SW,231,2.0,5.0,75,0.00,,,0.00,171.000000,,2013-02-25 17:42:00,
2013-02-25 12:52:00,38.0,31.0,-100.00,SW,231,2.0,5.0,75,0.00,,,0.00,171.000000,,2013-02-25 17:52:00,
2013-02-25 13:01:00,39.0,31.0,-100.00,SW,233,0.0,4.0,74,0.00,,,0.00,137.000000,,2013-02-25 18:01:00,
2013-02-25 13:33:00,39.0,31.0,-100.00,SW,233,0.0,4.0,74,0.00,,,0.00,137.000000,,2013-02-25 18:33:00,
2013-02-25 13:42:00,39.0,31.0,-100.00,SW,233,0.0,4.0,74,0.00,,,0.00,137.000000,,2013-02-25 18:42:00,
2013-02-25 13:52:00,39.0,31.0,-100.00,SW,233,0.0,4.0,74,0.00,,,0.00,137.000000,,2013-02-25 18:52:00,
2013-02-25 14:01:00,37.0,31.0,-100.00,WSW,238,1.0,7.0,80,0.00,,,0.00,95.000000,,2013-02-25 19:01:00,
2013-02-25 14:32:00,37.0,31.0,-100.00,WSW,238,1.0,7.0,80,0.00,,,0.00,95.000000,,2013-02-25 19:32:00,
2013-02-25 14:42:00,37.0,31.0,-100.00,WSW,238,1.0,7.0,80,0.00,,,0.00,95.000000,,2013-02-25 19:42:00,
2013-02-25 14:52:00,37.0,31.0,-100.00,WSW,238,1.0,7.0,80,0.00,,,0.00,95.000000,,2013-02-25 19:52:00,
2013-02-25 15:01:00,38.0,33.0,-100.00,WNW,288,0.0,6.0,81,0.00,,,0.00,96.000000,,2013-02-25 20:01:00,
2013-02-25 15:22:00,38.0,33.0,-100.00,WNW,288,0.0,6.0,81,0.00,,,0.00,96.000000,,2013-02-25 20:22:00,
2013-02-25 15:32:00,38.0,33.0,-100.00,WNW,288,0.0,6.0,81,0.00,,,0.00,96.000000,,2013-02-25 20:32:00,
2013-02-25 15:42:00,38.0,33.0,-100.00,WNW,288,0.0,6.0,81,0.00,,,0.00,96.000000,,2013-02-25 20:42:00,
2013-02-25 15:52:00,38.0,33.0,-100.00,WNW,288,0.0,6.0,81,0.00,,,0.00,96.000000,,2013-02-25 20:52:00,
2013-02-25 16:01:00,38.0,34.0,-100.00,SW,234,0.0,4.0,85,0.00,,,0.00,98.000000,,2013-02-25 21:01:00,
2013-02-25 16:32:00,38.0,34.0,-100.00,SW,234,0.0,4.0,85,0.00,,,0.00,98.000000,,2013-02-25 21:32:00,
2013-02-25 16:42:00,38.0,34.0,-100.00,SW,234,0.0,4.0,85,0.00,,,0.00,98.000000,,2013-02-25 21:42:00,
2013-02-25 16:52:00,38.0,34.0,-100.00,SW,234,0.0,4.0,85,0.00,,,0.00,98.000000,,2013-02-25 21:52:00,
2013-02-25 17:01:00,37.0,34.0,-100.00,SSE,158,0.0,1.0,87,0.00,,,0.00,68.000000,,2013-02-25 22:01:00,
2013-02-25 17:32:00,37.0,34.0,-100.00,SSE,158,0.0,1.0,87,0.00,,,0.00,68.000000,,2013-02-25 22:32:00,
2013-02-25 17:42:00,37.0,34.0,-100.00,SSE,158,0.0,1.0,87,0.00,,,0.00,68.000000,,2013-02-25 22:42:00,
2013-02-25 17:52:00,37.0,34.0,-100.00,SSE,158,0.0,1.0,87,0.00,,,0.00,68.000000,,2013-02-25 22:52:00,
2013-02-25 18:01:00,34.0,32.0,-100.00,SSE,158,0.0,0.0,93,0.00,,,0.00,11.000000,,2013-02-25 23:01:00,
2013-02-25 18:32:00,34.0,32.0,-100.00,SSE,158,0.0,0.0,93,0.00,,,0.00,11.000000,,2013-02-25 23:32:00,
2013-02-25 18:42:00,34.0,32.0,-100.00,SSE,158,0.0,0.0,93,0.00,,,0.00,11.000000,,2013-02-25 23:42:00,
2013-02-25 18:52:00,34.0,32.0,-100.00,SSE,158,0.0,0.0,93,0.00,,,0.00,11.000000,,2013-02-25 23:52:00,
2013-02-25 19:01:00,32.0,31.0,-100.00,SSE,158,0.0,0.0,95,0.00,,,0.00,0.000000,,2013-02-26 00:01:00,
2013-02-25 19:22:00,32.0,31.0,-100.00,SSE,158,0.0,0.0,95,0.00,,,0.00,0.000000,,2013-02-26 00:22:00,
2013-02-25 19:32:00,32.0,31.0,-100.00,SSE,158,0.0,0.0,95,0.00,,,0.00,0.000000,,2013-02-26 00:32:00,
2013-02-25 19:42:00,32.0,31.0,-100.00,SSE,158,0.0,0.0,95,0.00,,,0.00,0.000000,,2013-02-26 00:42:00,
2013-02-25 19:52:00,32.0,31.0,-100.00,SSE,158,0.0,0.0,95,0.00,,,0.00,0.000000,,2013-02-26 00:52:00,
2013-02-25 20:01:00,31.0,30.0,-100.00,SW,234,0.0,0.0,96,0.00,,,0.00,0.000000,,2013-02-26 01:01:00,
2013-02-25 20:32:00,31.0,30.0,-100.00,SW,234,0.0,0.0,96,0.00,,,0.00,0.000000,,2013-02-26 01:32:00,
2013-02-25 20:42:00,31.0,30.0,-100.00,SW,234,0.0,0.0,96,0.00,,,0.00,0.000000,,2013-02-26 01:42:00,
2013-02-25 20:52:00,31.0,30.0,-100.00,SW,234,0.0,0.0,96,0.00,,,0.00,0.000000,,2013-02-26 01:52:00,
2013-02-25 21:01:00,31.0,30.0,-100.00,SSE,155,0.0,1.0,96,0.00,,,0.00,0.000000,,2013-02-26 02:01:00,
2013-02-25 21:32:00,31.0,30.0,-100.00,SSE,155,0.0,1.0,96,0.00,,,0.00,0.000000,,2013-02-26 02:32:00,
2013-02-25 21:42:00,31.0,30.0,-100.00,SSE,155,0.0,1.0,96,0.00,,,0.00,0.000000,,2013-02-26 02:42:00,
2013-02-25 21:52:00,31.0,30.0,-100.00,SSE,155,0.0,1.0,96,0.00,,,0.00,0.000000,,2013-02-26 02:52:00,
2013-02-25 22:01:00,30.0,29.0,-100.00,SE,132,0.0,0.0,96,0.00,,,0.00,0.000000,,2013-02-26 03:01:00,
2013-02-25 22:22:00,30.0,29.0,-100.00,SE,132,0.0,0.0,96,0.00,,,0.00,0.000000,,2013-02-26 03:22:00,
2013-02-25 22:32:00,30.0,29.0,-100.00,SE,132,0.0,0.0,96,0.00,,,0.00,0.000000,,2013-02-26 03:32:00,
2013-02-25 22:42:00,30.0,29.0,-100.00,SE,132,0.0,0.0,96,0.00,,,0.00,0.000000,,2013-02-26 03:42:00,
2013-02-25 22:52:00,30.0,29.0,-100.00,SE,132,0.0,0.0,96,0.00,,,0.00,0.000000,,2013-02-26 03:52:00,
2013-02-25 23:01:00,31.0,30.0,-100.00,SE,141,0.0,0.0,97,0.00,,,0.00,0.000000,,2013-02-26 04:01:00,
2013-02-25 23:32:00,31.0,30.0,-100.00,SE,141,0.0,0.0,97,0.00,,,0.00,0.000000,,2013-02-26 04:32:00,
2013-02-25 23:42:00,31.0,30.0,-100.00,SE,141,0.0,0.0,97,0.00,,,0.00,0.000000,,2013-02-26 04:42:00,
2013-02-25 23:52:00,31.0,30.0,-100.00,SE,141,0.0,0.0,97,0.00,,,0.00,0.000000,,2013-02-26 04:52:00,